sensor_id;sensor_type;location;lat;lon;timestamp;P1;durP1;ratioP1;P2;durP2;ratioP2
55148;SDS011;49539;48.160;11.530;2023-04-24T00:00:13;1.80;;;1.23;;
55148;SDS011;49539;48.160;11.530;2023-04-24T00:02:39;2.35;;;1.17;;
55148;SDS011;49539;48.160;11.530;2023-04-24T00:05:05;2.45;;;1.20;;
55148;SDS011;49539;48.160;11.530;2023-04-24T00:07:30;2.63;;;1.48;;
55148;SDS011;49539;48.160;11.530;2023-04-24T00:09:56;1.73;;;1.10;;
55148;SDS011;49539;48.160;11.530;2023-04-24T00:12:22;1.55;;;1.10;;
55148;SDS011;49539;48.160;11.530;2023-04-24T00:14:47;1.00;;;0.75;;
55148;SDS011;49539;48.160;11.530;2023-04-24T00:17:12;2.63;;;1.30;;
55148;SDS011;49539;48.160;11.530;2023-04-24T00:19:38;1.58;;;0.93;;
55148;SDS011;49539;48.160;11.530;2023-04-24T00:22:04;2.20;;;1.00;;
55148;SDS011;49539;48.160;11.530;2023-04-24T00:24:29;3.13;;;1.30;;
55148;SDS011;49539;48.160;11.530;2023-04-24T00:26:54;4.15;;;0.80;;
55148;SDS011;49539;48.160;11.530;2023-04-24T00:29:20;3.45;;;0.95;;
55148;SDS011;49539;48.160;11.530;2023-04-24T00:31:45;1.43;;;0.90;;
55148;SDS011;49539;48.160;11.530;2023-04-24T00:34:10;1.35;;;0.90;;
55148;SDS011;49539;48.160;11.530;2023-04-24T00:36:36;1.08;;;0.70;;
55148;SDS011;49539;48.160;11.530;2023-04-24T00:39:02;3.05;;;0.90;;
55148;SDS011;49539;48.160;11.530;2023-04-24T00:41:27;1.15;;;0.93;;
55148;SDS011;49539;48.160;11.530;2023-04-24T00:43:53;0.80;;;0.70;;
55148;SDS011;49539;48.160;11.530;2023-04-24T00:46:18;0.40;;;0.40;;
55148;SDS011;49539;48.160;11.530;2023-04-24T00:48:44;1.50;;;0.60;;
55148;SDS011;49539;48.160;11.530;2023-04-24T00:51:09;0.98;;;0.75;;
55148;SDS011;49539;48.160;11.530;2023-04-24T00:53:35;0.90;;;0.70;;
55148;SDS011;49539;48.160;11.530;2023-04-24T00:56:20;2.05;;;0.90;;
55148;SDS011;49539;48.160;11.530;2023-04-24T00:58:46;1.45;;;0.70;;
55148;SDS011;49539;48.160;11.530;2023-04-24T01:01:12;1.10;;;0.60;;
55148;SDS011;49539;48.160;11.530;2023-04-24T01:03:37;1.17;;;0.80;;
55148;SDS011;49539;48.160;11.530;2023-04-24T01:06:03;1.23;;;0.80;;
55148;SDS011;49539;48.160;11.530;2023-04-24T01:08:29;1.65;;;0.50;;
55148;SDS011;49539;48.160;11.530;2023-04-24T01:11:14;0.82;;;0.50;;
55148;SDS011;49539;48.160;11.530;2023-04-24T01:13:39;1.42;;;0.63;;
55148;SDS011;49539;48.160;11.530;2023-04-24T01:16:08;0.90;;;0.60;;
55148;SDS011;49539;48.160;11.530;2023-04-24T01:18:53;0.50;;;0.50;;
55148;SDS011;49539;48.160;11.530;2023-04-24T01:21:21;0.90;;;0.68;;
55148;SDS011;49539;48.160;11.530;2023-04-24T01:23:46;1.05;;;0.70;;
55148;SDS011;49539;48.160;11.530;2023-04-24T01:26:15;0.82;;;0.70;;
55148;SDS011;49539;48.160;11.530;2023-04-24T01:28:50;0.95;;;0.50;;
55148;SDS011;49539;48.160;11.530;2023-04-24T01:31:35;2.13;;;0.60;;
55148;SDS011;49539;48.160;11.530;2023-04-24T01:34:01;1.58;;;0.70;;
55148;SDS011;49539;48.160;11.530;2023-04-24T01:36:34;0.70;;;0.55;;
55148;SDS011;49539;48.160;11.530;2023-04-24T01:39:00;0.95;;;0.60;;
55148;SDS011;49539;48.160;11.530;2023-04-24T01:41:46;0.93;;;0.60;;
55148;SDS011;49539;48.160;11.530;2023-04-24T01:44:27;0.75;;;0.50;;
55148;SDS011;49539;48.160;11.530;2023-04-24T01:46:52;0.60;;;0.50;;
55148;SDS011;49539;48.160;11.530;2023-04-24T01:49:20;0.98;;;0.60;;
55148;SDS011;49539;48.160;11.530;2023-04-24T01:51:45;1.35;;;0.60;;
55148;SDS011;49539;48.160;11.530;2023-04-24T01:54:10;0.80;;;0.50;;
55148;SDS011;49539;48.160;11.530;2023-04-24T01:56:36;1.02;;;0.70;;
55148;SDS011;49539;48.160;11.530;2023-04-24T01:59:21;0.50;;;0.50;;
55148;SDS011;49539;48.160;11.530;2023-04-24T02:01:46;0.70;;;0.60;;
55148;SDS011;49539;48.160;11.530;2023-04-24T02:04:12;0.90;;;0.50;;
55148;SDS011;49539;48.160;11.530;2023-04-24T02:06:37;2.53;;;0.45;;
55148;SDS011;49539;48.160;11.530;2023-04-24T02:09:03;0.88;;;0.70;;
55148;SDS011;49539;48.160;11.530;2023-04-24T02:11:48;1.25;;;0.57;;
55148;SDS011;49539;48.160;11.530;2023-04-24T02:14:21;0.50;;;0.45;;
55148;SDS011;49539;48.160;11.530;2023-04-24T02:16:47;1.33;;;0.70;;
55148;SDS011;49539;48.160;11.530;2023-04-24T02:19:12;0.85;;;0.50;;
55148;SDS011;49539;48.160;11.530;2023-04-24T02:21:45;0.93;;;0.45;;
55148;SDS011;49539;48.160;11.530;2023-04-24T02:24:10;0.60;;;0.40;;
55148;SDS011;49539;48.160;11.530;2023-04-24T02:26:55;1.00;;;0.68;;
55148;SDS011;49539;48.160;11.530;2023-04-24T02:29:21;0.60;;;0.43;;
55148;SDS011;49539;48.160;11.530;2023-04-24T02:31:46;1.95;;;0.60;;
55148;SDS011;49539;48.160;11.530;2023-04-24T02:34:12;0.85;;;0.68;;
55148;SDS011;49539;48.160;11.530;2023-04-24T02:36:44;1.13;;;0.50;;
55148;SDS011;49539;48.160;11.530;2023-04-24T02:39:09;0.50;;;0.40;;
55148;SDS011;49539;48.160;11.530;2023-04-24T02:41:35;0.60;;;0.43;;
55148;SDS011;49539;48.160;11.530;2023-04-24T02:44:00;1.52;;;0.82;;
55148;SDS011;49539;48.160;11.530;2023-04-24T02:46:25;1.48;;;0.50;;
55148;SDS011;49539;48.160;11.530;2023-04-24T02:48:51;0.45;;;0.40;;
55148;SDS011;49539;48.160;11.530;2023-04-24T02:51:17;0.50;;;0.45;;
55148;SDS011;49539;48.160;11.530;2023-04-24T02:53:58;1.20;;;0.60;;
55148;SDS011;49539;48.160;11.530;2023-04-24T02:56:24;0.75;;;0.68;;
55148;SDS011;49539;48.160;11.530;2023-04-24T02:58:49;3.05;;;1.02;;
55148;SDS011;49539;48.160;11.530;2023-04-24T03:01:14;0.50;;;0.50;;
55148;SDS011;49539;48.160;11.530;2023-04-24T03:03:40;0.93;;;0.52;;
55148;SDS011;49539;48.160;11.530;2023-04-24T03:06:12;1.23;;;0.57;;
55148;SDS011;49539;48.160;11.530;2023-04-24T03:08:53;2.22;;;0.52;;
55148;SDS011;49539;48.160;11.530;2023-04-24T03:11:19;1.30;;;0.70;;
55148;SDS011;49539;48.160;11.530;2023-04-24T03:13:51;0.93;;;0.57;;
55148;SDS011;49539;48.160;11.530;2023-04-24T03:16:16;1.95;;;0.60;;
55148;SDS011;49539;48.160;11.530;2023-04-24T03:18:42;0.68;;;0.50;;
55148;SDS011;49539;48.160;11.530;2023-04-24T03:21:07;0.63;;;0.50;;
55148;SDS011;49539;48.160;11.530;2023-04-24T03:23:32;1.17;;;0.60;;
55148;SDS011;49539;48.160;11.530;2023-04-24T03:25:57;0.88;;;0.50;;
55148;SDS011;49539;48.160;11.530;2023-04-24T03:28:23;1.10;;;0.50;;
55148;SDS011;49539;48.160;11.530;2023-04-24T03:30:50;0.75;;;0.60;;
55148;SDS011;49539;48.160;11.530;2023-04-24T03:33:15;0.60;;;0.60;;
55148;SDS011;49539;48.160;11.530;2023-04-24T03:35:40;1.30;;;0.60;;
55148;SDS011;49539;48.160;11.530;2023-04-24T03:38:06;0.82;;;0.52;;
55148;SDS011;49539;48.160;11.530;2023-04-24T03:40:31;0.82;;;0.63;;
55148;SDS011;49539;48.160;11.530;2023-04-24T03:42:58;1.25;;;0.70;;
55148;SDS011;49539;48.160;11.530;2023-04-24T03:45:24;1.48;;;0.70;;
55148;SDS011;49539;48.160;11.530;2023-04-24T03:47:49;1.25;;;0.60;;
55148;SDS011;49539;48.160;11.530;2023-04-24T03:50:15;3.67;;;0.70;;
55148;SDS011;49539;48.160;11.530;2023-04-24T03:52:40;2.28;;;1.00;;
55148;SDS011;49539;48.160;11.530;2023-04-24T03:55:09;1.88;;;0.80;;
55148;SDS011;49539;48.160;11.530;2023-04-24T03:57:38;2.03;;;0.98;;
55148;SDS011;49539;48.160;11.530;2023-04-24T04:00:03;1.20;;;0.65;;
55148;SDS011;49539;48.160;11.530;2023-04-24T04:02:29;0.85;;;0.60;;
55148;SDS011;49539;48.160;11.530;2023-04-24T04:04:55;1.45;;;0.68;;
55148;SDS011;49539;48.160;11.530;2023-04-24T04:07:20;1.20;;;0.77;;
55148;SDS011;49539;48.160;11.530;2023-04-24T04:12:20;1.10;;;0.60;;
55148;SDS011;49539;48.160;11.530;2023-04-24T04:14:45;1.20;;;0.68;;
55148;SDS011;49539;48.160;11.530;2023-04-24T04:17:10;1.05;;;0.77;;
55148;SDS011;49539;48.160;11.530;2023-04-24T04:19:50;0.60;;;0.60;;
55148;SDS011;49539;48.160;11.530;2023-04-24T04:22:16;1.00;;;0.57;;
55148;SDS011;49539;48.160;11.530;2023-04-24T04:24:41;0.55;;;0.52;;
55148;SDS011;49539;48.160;11.530;2023-04-24T04:27:07;0.90;;;0.60;;
55148;SDS011;49539;48.160;11.530;2023-04-24T04:29:33;1.20;;;0.70;;
55148;SDS011;49539;48.160;11.530;2023-04-24T04:31:59;0.82;;;0.50;;
55148;SDS011;49539;48.160;11.530;2023-04-24T04:34:25;2.13;;;0.90;;
55148;SDS011;49539;48.160;11.530;2023-04-24T04:36:52;1.50;;;0.80;;
55148;SDS011;49539;48.160;11.530;2023-04-24T04:39:17;1.50;;;0.70;;
55148;SDS011;49539;48.160;11.530;2023-04-24T04:41:43;2.40;;;0.70;;
55148;SDS011;49539;48.160;11.530;2023-04-24T04:44:09;2.20;;;0.70;;
55148;SDS011;49539;48.160;11.530;2023-04-24T04:46:34;0.75;;;0.60;;
55148;SDS011;49539;48.160;11.530;2023-04-24T04:49:15;0.80;;;0.60;;
55148;SDS011;49539;48.160;11.530;2023-04-24T04:51:41;1.45;;;0.65;;
55148;SDS011;49539;48.160;11.530;2023-04-24T04:54:07;1.63;;;0.90;;
55148;SDS011;49539;48.160;11.530;2023-04-24T04:56:32;2.10;;;0.95;;
55148;SDS011;49539;48.160;11.530;2023-04-24T04:58:59;1.88;;;0.82;;
55148;SDS011;49539;48.160;11.530;2023-04-24T05:03:57;1.70;;;0.82;;
55148;SDS011;49539;48.160;11.530;2023-04-24T05:06:22;1.55;;;0.65;;
55148;SDS011;49539;48.160;11.530;2023-04-24T05:08:47;1.58;;;0.77;;
55148;SDS011;49539;48.160;11.530;2023-04-24T05:11:13;1.33;;;0.60;;
55148;SDS011;49539;48.160;11.530;2023-04-24T05:13:59;2.15;;;0.90;;
55148;SDS011;49539;48.160;11.530;2023-04-24T05:16:25;1.65;;;0.75;;
55148;SDS011;49539;48.160;11.530;2023-04-24T05:18:50;7.75;;;0.70;;
55148;SDS011;49539;48.160;11.530;2023-04-24T05:21:15;1.98;;;0.75;;
55148;SDS011;49539;48.160;11.530;2023-04-24T05:23:41;1.95;;;0.68;;
55148;SDS011;49539;48.160;11.530;2023-04-24T05:26:10;1.85;;;0.60;;
55148;SDS011;49539;48.160;11.530;2023-04-24T05:28:55;4.53;;;1.05;;
55148;SDS011;49539;48.160;11.530;2023-04-24T05:31:23;1.95;;;0.70;;
55148;SDS011;49539;48.160;11.530;2023-04-24T05:33:48;1.33;;;0.55;;
55148;SDS011;49539;48.160;11.530;2023-04-24T05:36:13;0.95;;;0.50;;
55148;SDS011;49539;48.160;11.530;2023-04-24T05:38:39;1.40;;;0.70;;
55148;SDS011;49539;48.160;11.530;2023-04-24T05:41:24;2.40;;;0.75;;
55148;SDS011;49539;48.160;11.530;2023-04-24T05:43:50;0.80;;;0.55;;
55148;SDS011;49539;48.160;11.530;2023-04-24T05:46:16;3.13;;;0.80;;
55148;SDS011;49539;48.160;11.530;2023-04-24T05:48:41;1.55;;;0.80;;
55148;SDS011;49539;48.160;11.530;2023-04-24T05:51:06;0.57;;;0.57;;
55148;SDS011;49539;48.160;11.530;2023-04-24T05:53:32;0.68;;;0.55;;
55148;SDS011;49539;48.160;11.530;2023-04-24T05:55:57;2.42;;;0.73;;
55148;SDS011;49539;48.160;11.530;2023-04-24T05:58:22;0.63;;;0.50;;
55148;SDS011;49539;48.160;11.530;2023-04-24T06:00:48;1.52;;;0.68;;
55148;SDS011;49539;48.160;11.530;2023-04-24T06:03:14;1.50;;;0.70;;
55148;SDS011;49539;48.160;11.530;2023-04-24T06:06:00;0.73;;;0.50;;
55148;SDS011;49539;48.160;11.530;2023-04-24T06:08:45;0.65;;;0.60;;
55148;SDS011;49539;48.160;11.530;2023-04-24T06:11:12;0.40;;;0.40;;
55148;SDS011;49539;48.160;11.530;2023-04-24T06:13:58;0.57;;;0.43;;
55148;SDS011;49539;48.160;11.530;2023-04-24T06:16:23;0.77;;;0.40;;
55148;SDS011;49539;48.160;11.530;2023-04-24T06:18:49;2.08;;;0.60;;
55148;SDS011;49539;48.160;11.530;2023-04-24T06:21:16;1.30;;;0.85;;
55148;SDS011;49539;48.160;11.530;2023-04-24T06:23:41;0.65;;;0.50;;
55148;SDS011;49539;48.160;11.530;2023-04-24T06:26:06;1.30;;;0.45;;
55148;SDS011;49539;48.160;11.530;2023-04-24T06:28:32;0.52;;;0.50;;
55148;SDS011;49539;48.160;11.530;2023-04-24T06:30:58;1.20;;;0.50;;
55148;SDS011;49539;48.160;11.530;2023-04-24T06:33:23;0.73;;;0.40;;
55148;SDS011;49539;48.160;11.530;2023-04-24T06:35:49;0.40;;;0.40;;
55148;SDS011;49539;48.160;11.530;2023-04-24T06:38:14;0.50;;;0.40;;
55148;SDS011;49539;48.160;11.530;2023-04-24T06:40:41;0.38;;;0.38;;
55148;SDS011;49539;48.160;11.530;2023-04-24T06:43:06;0.60;;;0.45;;
55148;SDS011;49539;48.160;11.530;2023-04-24T06:45:32;0.50;;;0.30;;
55148;SDS011;49539;48.160;11.530;2023-04-24T06:47:57;1.70;;;0.50;;
55148;SDS011;49539;48.160;11.530;2023-04-24T06:50:38;1.02;;;0.65;;
55148;SDS011;49539;48.160;11.530;2023-04-24T06:53:03;0.90;;;0.35;;
55148;SDS011;49539;48.160;11.530;2023-04-24T06:55:43;2.00;;;0.47;;
55148;SDS011;49539;48.160;11.530;2023-04-24T06:58:29;0.55;;;0.40;;
55148;SDS011;49539;48.160;11.530;2023-04-24T07:00:55;2.72;;;0.55;;
55148;SDS011;49539;48.160;11.530;2023-04-24T07:03:40;0.82;;;0.40;;
55148;SDS011;49539;48.160;11.530;2023-04-24T07:06:06;0.45;;;0.30;;
55148;SDS011;49539;48.160;11.530;2023-04-24T07:08:31;0.70;;;0.32;;
55148;SDS011;49539;48.160;11.530;2023-04-24T07:11:01;0.40;;;0.40;;
55148;SDS011;49539;48.160;11.530;2023-04-24T07:13:26;1.13;;;0.50;;
55148;SDS011;49539;48.160;11.530;2023-04-24T07:15:53;0.40;;;0.40;;
55148;SDS011;49539;48.160;11.530;2023-04-24T07:18:19;0.38;;;0.30;;
55148;SDS011;49539;48.160;11.530;2023-04-24T07:20:44;0.52;;;0.40;;
55148;SDS011;49539;48.160;11.530;2023-04-24T07:23:10;1.38;;;0.43;;
55148;SDS011;49539;48.160;11.530;2023-04-24T07:25:35;5.78;;;0.50;;
55148;SDS011;49539;48.160;11.530;2023-04-24T07:28:00;1.20;;;0.50;;
55148;SDS011;49539;48.160;11.530;2023-04-24T07:30:26;0.55;;;0.40;;
55148;SDS011;49539;48.160;11.530;2023-04-24T07:32:53;0.40;;;0.40;;
55148;SDS011;49539;48.160;11.530;2023-04-24T07:35:19;0.63;;;0.38;;
55148;SDS011;49539;48.160;11.530;2023-04-24T07:37:45;0.60;;;0.40;;
55148;SDS011;49539;48.160;11.530;2023-04-24T07:40:14;0.60;;;0.40;;
55148;SDS011;49539;48.160;11.530;2023-04-24T07:42:40;0.52;;;0.40;;
55148;SDS011;49539;48.160;11.530;2023-04-24T07:45:13;1.00;;;0.35;;
55148;SDS011;49539;48.160;11.530;2023-04-24T07:47:39;0.60;;;0.47;;
55148;SDS011;49539;48.160;11.530;2023-04-24T07:50:05;0.32;;;0.30;;
55148;SDS011;49539;48.160;11.530;2023-04-24T07:52:30;0.63;;;0.40;;
55148;SDS011;49539;48.160;11.530;2023-04-24T07:54:56;1.50;;;0.50;;
55148;SDS011;49539;48.160;11.530;2023-04-24T07:57:24;0.88;;;0.43;;
55148;SDS011;49539;48.160;11.530;2023-04-24T07:59:49;0.30;;;0.30;;
55148;SDS011;49539;48.160;11.530;2023-04-24T08:02:35;0.68;;;0.32;;
55148;SDS011;49539;48.160;11.530;2023-04-24T08:05:00;0.30;;;0.30;;
55148;SDS011;49539;48.160;11.530;2023-04-24T08:07:26;0.43;;;0.30;;
55148;SDS011;49539;48.160;11.530;2023-04-24T08:09:51;0.80;;;0.47;;
55148;SDS011;49539;48.160;11.530;2023-04-24T08:12:16;0.55;;;0.45;;
55148;SDS011;49539;48.160;11.530;2023-04-24T08:14:42;1.30;;;0.60;;
55148;SDS011;49539;48.160;11.530;2023-04-24T08:17:07;0.93;;;0.35;;
55148;SDS011;49539;48.160;11.530;2023-04-24T08:19:32;0.47;;;0.40;;
55148;SDS011;49539;48.160;11.530;2023-04-24T08:21:58;1.65;;;0.40;;
55148;SDS011;49539;48.160;11.530;2023-04-24T08:24:23;0.60;;;0.40;;
55148;SDS011;49539;48.160;11.530;2023-04-24T08:26:48;0.73;;;0.30;;
55148;SDS011;49539;48.160;11.530;2023-04-24T08:29:17;0.55;;;0.32;;
55148;SDS011;49539;48.160;11.530;2023-04-24T08:31:42;1.60;;;0.38;;
55148;SDS011;49539;48.160;11.530;2023-04-24T08:34:08;0.50;;;0.50;;
55148;SDS011;49539;48.160;11.530;2023-04-24T08:36:34;0.32;;;0.32;;
55148;SDS011;49539;48.160;11.530;2023-04-24T08:39:00;0.68;;;0.50;;
55148;SDS011;49539;48.160;11.530;2023-04-24T08:41:45;1.80;;;0.52;;
55148;SDS011;49539;48.160;11.530;2023-04-24T08:44:13;1.35;;;0.65;;
55148;SDS011;49539;48.160;11.530;2023-04-24T08:46:40;1.42;;;0.80;;
55148;SDS011;49539;48.160;11.530;2023-04-24T08:49:28;1.55;;;0.90;;
55148;SDS011;49539;48.160;11.530;2023-04-24T08:51:54;1.25;;;0.73;;
55148;SDS011;49539;48.160;11.530;2023-04-24T08:54:20;2.05;;;0.88;;
55148;SDS011;49539;48.160;11.530;2023-04-24T08:56:46;2.53;;;0.75;;
55148;SDS011;49539;48.160;11.530;2023-04-24T08:59:13;1.58;;;0.80;;
55148;SDS011;49539;48.160;11.530;2023-04-24T09:01:39;1.77;;;1.00;;
55148;SDS011;49539;48.160;11.530;2023-04-24T09:04:05;1.63;;;0.80;;
55148;SDS011;49539;48.160;11.530;2023-04-24T09:06:51;1.25;;;0.80;;
55148;SDS011;49539;48.160;11.530;2023-04-24T09:09:17;2.38;;;0.88;;
55148;SDS011;49539;48.160;11.530;2023-04-24T09:11:43;2.17;;;0.93;;
55148;SDS011;49539;48.160;11.530;2023-04-24T09:14:09;1.20;;;0.75;;
55148;SDS011;49539;48.160;11.530;2023-04-24T09:16:35;1.83;;;0.88;;
55148;SDS011;49539;48.160;11.530;2023-04-24T09:19:01;1.98;;;0.80;;
55148;SDS011;49539;48.160;11.530;2023-04-24T09:21:30;1.30;;;0.80;;
55148;SDS011;49539;48.160;11.530;2023-04-24T09:24:15;2.35;;;0.70;;
55148;SDS011;49539;48.160;11.530;2023-04-24T09:26:42;4.28;;;1.10;;
55148;SDS011;49539;48.160;11.530;2023-04-24T09:29:08;2.17;;;0.95;;
55148;SDS011;49539;48.160;11.530;2023-04-24T09:31:38;0.65;;;0.55;;
55148;SDS011;49539;48.160;11.530;2023-04-24T09:34:07;1.40;;;0.82;;
55148;SDS011;49539;48.160;11.530;2023-04-24T09:36:33;1.88;;;1.13;;
55148;SDS011;49539;48.160;11.530;2023-04-24T09:39:02;1.05;;;0.90;;
55148;SDS011;49539;48.160;11.530;2023-04-24T09:41:28;2.15;;;1.15;;
55148;SDS011;49539;48.160;11.530;2023-04-24T09:43:55;13.80;;;1.45;;
55148;SDS011;49539;48.160;11.530;2023-04-24T09:46:21;9.05;;;1.17;;
55148;SDS011;49539;48.160;11.530;2023-04-24T09:48:53;2.47;;;1.10;;
55148;SDS011;49539;48.160;11.530;2023-04-24T09:51:19;3.50;;;1.02;;
55148;SDS011;49539;48.160;11.530;2023-04-24T09:53:57;1.75;;;0.85;;
55148;SDS011;49539;48.160;11.530;2023-04-24T09:56:23;3.17;;;1.00;;
55148;SDS011;49539;48.160;11.530;2023-04-24T09:58:50;2.67;;;1.10;;
55148;SDS011;49539;48.160;11.530;2023-04-24T10:01:15;1.52;;;0.77;;
55148;SDS011;49539;48.160;11.530;2023-04-24T10:03:41;7.82;;;1.25;;
55148;SDS011;49539;48.160;11.530;2023-04-24T10:06:07;6.32;;;1.23;;
55148;SDS011;49539;48.160;11.530;2023-04-24T10:08:52;1.33;;;0.80;;
55148;SDS011;49539;48.160;11.530;2023-04-24T10:11:18;2.05;;;1.05;;
55148;SDS011;49539;48.160;11.530;2023-04-24T10:13:43;2.92;;;1.08;;
55148;SDS011;49539;48.160;11.530;2023-04-24T10:16:10;1.13;;;0.88;;
55148;SDS011;49539;48.160;11.530;2023-04-24T10:18:35;2.45;;;1.00;;
55148;SDS011;49539;48.160;11.530;2023-04-24T10:21:00;2.20;;;0.80;;
55148;SDS011;49539;48.160;11.530;2023-04-24T10:23:26;1.00;;;0.80;;
55148;SDS011;49539;48.160;11.530;2023-04-24T10:25:52;2.75;;;1.45;;
55148;SDS011;49539;48.160;11.530;2023-04-24T10:28:32;1.70;;;0.93;;
55148;SDS011;49539;48.160;11.530;2023-04-24T10:30:59;1.58;;;0.90;;
55148;SDS011;49539;48.160;11.530;2023-04-24T10:33:24;2.67;;;0.90;;
55148;SDS011;49539;48.160;11.530;2023-04-24T10:35:51;2.38;;;1.33;;
55148;SDS011;49539;48.160;11.530;2023-04-24T10:38:18;1.00;;;0.85;;
55148;SDS011;49539;48.160;11.530;2023-04-24T10:40:49;2.17;;;1.02;;
55148;SDS011;49539;48.160;11.530;2023-04-24T10:43:16;1.10;;;0.73;;
55148;SDS011;49539;48.160;11.530;2023-04-24T10:45:42;2.88;;;1.10;;
55148;SDS011;49539;48.160;11.530;2023-04-24T10:48:26;1.58;;;1.08;;
55148;SDS011;49539;48.160;11.530;2023-04-24T10:50:52;3.63;;;1.30;;
55148;SDS011;49539;48.160;11.530;2023-04-24T10:53:36;3.25;;;1.65;;
55148;SDS011;49539;48.160;11.530;2023-04-24T10:56:03;2.58;;;1.13;;
55148;SDS011;49539;48.160;11.530;2023-04-24T10:58:36;2.05;;;1.00;;
55148;SDS011;49539;48.160;11.530;2023-04-24T11:01:03;3.13;;;1.10;;
55148;SDS011;49539;48.160;11.530;2023-04-24T11:03:29;2.13;;;1.10;;
55148;SDS011;49539;48.160;11.530;2023-04-24T11:05:56;0.63;;;0.63;;
55148;SDS011;49539;48.160;11.530;2023-04-24T11:08:22;1.20;;;0.70;;
55148;SDS011;49539;48.160;11.530;2023-04-24T11:11:21;0.88;;;0.60;;
55148;SDS011;49539;48.160;11.530;2023-04-24T11:19:10;0.88;;;0.77;;
55148;SDS011;49539;48.160;11.530;2023-04-24T11:26:48;1.95;;;1.20;;
55148;SDS011;49539;48.160;11.530;2023-04-24T11:29:13;1.23;;;0.88;;
55148;SDS011;49539;48.160;11.530;2023-04-24T11:31:39;1.77;;;0.98;;
55148;SDS011;49539;48.160;11.530;2023-04-24T11:34:15;2.42;;;1.25;;
55148;SDS011;49539;48.160;11.530;2023-04-24T11:36:44;3.88;;;0.95;;
55148;SDS011;49539;48.160;11.530;2023-04-24T11:39:10;1.42;;;0.80;;
55148;SDS011;49539;48.160;11.530;2023-04-24T11:41:36;1.30;;;0.98;;
55148;SDS011;49539;48.160;11.530;2023-04-24T11:44:01;1.13;;;0.73;;
55148;SDS011;49539;48.160;11.530;2023-04-24T11:46:28;2.58;;;0.80;;
55148;SDS011;49539;48.160;11.530;2023-04-24T11:48:54;2.50;;;0.80;;
55148;SDS011;49539;48.160;11.530;2023-04-24T11:51:40;1.13;;;0.63;;
55148;SDS011;49539;48.160;11.530;2023-04-24T11:54:07;1.88;;;0.70;;
55148;SDS011;49539;48.160;11.530;2023-04-24T11:56:32;2.38;;;0.90;;
55148;SDS011;49539;48.160;11.530;2023-04-24T11:58:58;1.20;;;0.70;;
55148;SDS011;49539;48.160;11.530;2023-04-24T12:01:23;1.27;;;0.60;;
55148;SDS011;49539;48.160;11.530;2023-04-24T12:03:49;2.35;;;0.75;;
55148;SDS011;49539;48.160;11.530;2023-04-24T12:06:16;1.65;;;1.00;;
55148;SDS011;49539;48.160;11.530;2023-04-24T12:08:42;1.60;;;0.65;;
55148;SDS011;49539;48.160;11.530;2023-04-24T12:11:10;1.15;;;0.68;;
55148;SDS011;49539;48.160;11.530;2023-04-24T12:13:36;1.85;;;1.00;;
55148;SDS011;49539;48.160;11.530;2023-04-24T12:16:22;1.17;;;0.80;;
55148;SDS011;49539;48.160;11.530;2023-04-24T12:18:47;1.98;;;0.80;;
55148;SDS011;49539;48.160;11.530;2023-04-24T12:21:33;1.48;;;0.93;;
55148;SDS011;49539;48.160;11.530;2023-04-24T12:23:58;3.15;;;1.20;;
55148;SDS011;49539;48.160;11.530;2023-04-24T12:26:23;1.40;;;0.98;;
55148;SDS011;49539;48.160;11.530;2023-04-24T12:29:09;3.05;;;0.77;;
55148;SDS011;49539;48.160;11.530;2023-04-24T12:31:34;0.85;;;0.60;;
55148;SDS011;49539;48.160;11.530;2023-04-24T12:34:00;1.38;;;0.80;;
55148;SDS011;49539;48.160;11.530;2023-04-24T12:36:25;2.17;;;0.95;;
55148;SDS011;49539;48.160;11.530;2023-04-24T12:38:52;3.85;;;1.40;;
55148;SDS011;49539;48.160;11.530;2023-04-24T12:41:18;2.67;;;0.85;;
55148;SDS011;49539;48.160;11.530;2023-04-24T12:43:53;2.15;;;1.08;;
55148;SDS011;49539;48.160;11.530;2023-04-24T12:46:19;2.72;;;0.75;;
55148;SDS011;49539;48.160;11.530;2023-04-24T12:48:49;1.33;;;0.80;;
55148;SDS011;49539;48.160;11.530;2023-04-24T12:51:15;2.05;;;1.05;;
55148;SDS011;49539;48.160;11.530;2023-04-24T12:53:40;2.60;;;0.70;;
55148;SDS011;49539;48.160;11.530;2023-04-24T12:56:05;1.67;;;1.00;;
55148;SDS011;49539;48.160;11.530;2023-04-24T12:58:34;1.92;;;0.98;;
55148;SDS011;49539;48.160;11.530;2023-04-24T13:01:00;1.80;;;0.80;;
55148;SDS011;49539;48.160;11.530;2023-04-24T13:03:25;1.30;;;0.88;;
55148;SDS011;49539;48.160;11.530;2023-04-24T13:05:51;2.63;;;0.90;;
55148;SDS011;49539;48.160;11.530;2023-04-24T13:08:16;4.28;;;1.30;;
55148;SDS011;49539;48.160;11.530;2023-04-24T13:10:45;3.47;;;1.00;;
55148;SDS011;49539;48.160;11.530;2023-04-24T13:13:11;1.98;;;1.08;;
55148;SDS011;49539;48.160;11.530;2023-04-24T13:15:36;1.35;;;0.90;;
55148;SDS011;49539;48.160;11.530;2023-04-24T13:18:01;1.63;;;1.08;;
55148;SDS011;49539;48.160;11.530;2023-04-24T13:20:26;3.33;;;1.33;;
55148;SDS011;49539;48.160;11.530;2023-04-24T13:22:52;3.63;;;1.30;;
55148;SDS011;49539;48.160;11.530;2023-04-24T13:25:17;1.85;;;1.05;;
55148;SDS011;49539;48.160;11.530;2023-04-24T13:27:43;2.38;;;1.30;;
55148;SDS011;49539;48.160;11.530;2023-04-24T13:30:28;1.77;;;0.93;;
55148;SDS011;49539;48.160;11.530;2023-04-24T13:32:53;2.28;;;1.17;;
55148;SDS011;49539;48.160;11.530;2023-04-24T13:35:38;3.00;;;0.88;;
55148;SDS011;49539;48.160;11.530;2023-04-24T13:38:04;2.13;;;0.93;;
55148;SDS011;49539;48.160;11.530;2023-04-24T13:40:31;2.53;;;1.20;;
55148;SDS011;49539;48.160;11.530;2023-04-24T13:42:58;1.92;;;0.90;;
55148;SDS011;49539;48.160;11.530;2023-04-24T13:45:23;1.67;;;1.05;;
55148;SDS011;49539;48.160;11.530;2023-04-24T13:47:48;1.83;;;1.10;;
55148;SDS011;49539;48.160;11.530;2023-04-24T13:50:14;2.25;;;1.40;;
55148;SDS011;49539;48.160;11.530;2023-04-24T13:52:40;1.35;;;0.85;;
55148;SDS011;49539;48.160;11.530;2023-04-24T13:55:05;1.58;;;0.90;;
55148;SDS011;49539;48.160;11.530;2023-04-24T13:57:38;8.52;;;1.02;;
55148;SDS011;49539;48.160;11.530;2023-04-24T14:00:04;1.52;;;0.95;;
55148;SDS011;49539;48.160;11.530;2023-04-24T14:02:36;3.00;;;1.15;;
55148;SDS011;49539;48.160;11.530;2023-04-24T14:05:01;2.67;;;1.20;;
55148;SDS011;49539;48.160;11.530;2023-04-24T14:07:28;1.60;;;1.10;;
55148;SDS011;49539;48.160;11.530;2023-04-24T14:09:53;1.73;;;1.13;;
55148;SDS011;49539;48.160;11.530;2023-04-24T14:12:19;5.13;;;1.08;;
55148;SDS011;49539;48.160;11.530;2023-04-24T14:14:46;2.95;;;1.20;;
55148;SDS011;49539;48.160;11.530;2023-04-24T14:17:13;1.60;;;1.00;;
55148;SDS011;49539;48.160;11.530;2023-04-24T14:19:38;2.35;;;1.13;;
55148;SDS011;49539;48.160;11.530;2023-04-24T14:22:21;1.73;;;1.02;;
55148;SDS011;49539;48.160;11.530;2023-04-24T14:24:46;2.75;;;1.40;;
55148;SDS011;49539;48.160;11.530;2023-04-24T14:27:11;1.63;;;1.10;;
55148;SDS011;49539;48.160;11.530;2023-04-24T14:29:37;1.48;;;1.02;;
55148;SDS011;49539;48.160;11.530;2023-04-24T14:32:02;1.67;;;1.15;;
55148;SDS011;49539;48.160;11.530;2023-04-24T14:34:28;2.20;;;1.10;;
55148;SDS011;49539;48.160;11.530;2023-04-24T14:36:53;1.98;;;1.13;;
55148;SDS011;49539;48.160;11.530;2023-04-24T14:39:19;1.23;;;0.80;;
55148;SDS011;49539;48.160;11.530;2023-04-24T14:41:45;2.90;;;0.77;;
55148;SDS011;49539;48.160;11.530;2023-04-24T14:44:11;1.55;;;1.00;;
55148;SDS011;49539;48.160;11.530;2023-04-24T14:46:37;2.55;;;1.00;;
55148;SDS011;49539;48.160;11.530;2023-04-24T14:49:02;2.97;;;1.33;;
55148;SDS011;49539;48.160;11.530;2023-04-24T14:51:27;2.85;;;1.20;;
55148;SDS011;49539;48.160;11.530;2023-04-24T14:53:56;2.00;;;1.08;;